sensor_id;sensor_type;location;lat;lon;timestamp;P1;durP1;ratioP1;P2;durP2;ratioP2
3995;SDS011;2012;49.794;9.722;2022-09-12T00:03:38;16.57;;;8.00;;
3995;SDS011;2012;49.794;9.722;2022-09-12T00:06:12;9.97;;;7.83;;
3995;SDS011;2012;49.794;9.722;2022-09-12T00:08:48;13.30;;;8.97;;
3995;SDS011;2012;49.794;9.722;2022-09-12T00:11:15;9.03;;;7.30;;
3995;SDS011;2012;49.794;9.722;2022-09-12T00:13:42;11.73;;;7.90;;
3995;SDS011;2012;49.794;9.722;2022-09-12T00:16:16;11.70;;;7.97;;
3995;SDS011;2012;49.794;9.722;2022-09-12T00:18:45;11.23;;;8.17;;
3995;SDS011;2012;49.794;9.722;2022-09-12T00:21:12;11.13;;;7.80;;
3995;SDS011;2012;49.794;9.722;2022-09-12T00:23:40;8.57;;;7.40;;
3995;SDS011;2012;49.794;9.722;2022-09-12T00:26:06;10.13;;;8.23;;
3995;SDS011;2012;49.794;9.722;2022-09-12T00:28:34;8.00;;;7.20;;
3995;SDS011;2012;49.794;9.722;2022-09-12T00:31:06;10.30;;;7.40;;
3995;SDS011;2012;49.794;9.722;2022-09-12T00:33:34;9.40;;;8.20;;
3995;SDS011;2012;49.794;9.722;2022-09-12T00:36:09;9.70;;;8.30;;
3995;SDS011;2012;49.794;9.722;2022-09-12T00:38:37;11.33;;;7.70;;
3995;SDS011;2012;49.794;9.722;2022-09-12T00:41:09;12.10;;;8.03;;
3995;SDS011;2012;49.794;9.722;2022-09-12T00:43:47;11.30;;;8.53;;
3995;SDS011;2012;49.794;9.722;2022-09-12T00:49:19;10.17;;;7.40;;
3995;SDS011;2012;49.794;9.722;2022-09-12T00:52:07;8.70;;;7.90;;
3995;SDS011;2012;49.794;9.722;2022-09-12T00:54:46;10.03;;;7.70;;
3995;SDS011;2012;49.794;9.722;2022-09-12T00:57:18;7.20;;;6.27;;
3995;SDS011;2012;49.794;9.722;2022-09-12T00:59:49;10.17;;;7.60;;
3995;SDS011;2012;49.794;9.722;2022-09-12T01:02:22;7.20;;;5.87;;
3995;SDS011;2012;49.794;9.722;2022-09-12T01:04:50;7.40;;;6.30;;
3995;SDS011;2012;49.794;9.722;2022-09-12T01:07:18;9.00;;;6.80;;
3995;SDS011;2012;49.794;9.722;2022-09-12T01:09:46;9.50;;;6.73;;
3995;SDS011;2012;49.794;9.722;2022-09-12T01:12:14;10.40;;;6.27;;
3995;SDS011;2012;49.794;9.722;2022-09-12T01:14:41;6.90;;;6.23;;
3995;SDS011;2012;49.794;9.722;2022-09-12T01:17:12;7.80;;;7.00;;
3995;SDS011;2012;49.794;9.722;2022-09-12T01:25:23;12.83;;;7.87;;
3995;SDS011;2012;49.794;9.722;2022-09-12T01:35:57;11.20;;;9.20;;
3995;SDS011;2012;49.794;9.722;2022-09-12T01:43:51;10.67;;;8.77;;
3995;SDS011;2012;49.794;9.722;2022-09-12T01:46:40;9.43;;;8.37;;
3995;SDS011;2012;49.794;9.722;2022-09-12T01:49:14;11.53;;;8.07;;
3995;SDS011;2012;49.794;9.722;2022-09-12T01:51:52;12.73;;;8.50;;
3995;SDS011;2012;49.794;9.722;2022-09-12T01:54:44;19.10;;;9.93;;
3995;SDS011;2012;49.794;9.722;2022-09-12T01:57:17;11.60;;;8.53;;
3995;SDS011;2012;49.794;9.722;2022-09-12T01:59:51;11.77;;;9.03;;
3995;SDS011;2012;49.794;9.722;2022-09-12T02:02:34;18.23;;;11.07;;
3995;SDS011;2012;49.794;9.722;2022-09-12T02:05:10;59.30;;;11.10;;
3995;SDS011;2012;49.794;9.722;2022-09-12T02:07:44;20.50;;;12.77;;
3995;SDS011;2012;49.794;9.722;2022-09-12T02:10:19;20.10;;;12.43;;
3995;SDS011;2012;49.794;9.722;2022-09-12T02:12:58;58.50;;;12.93;;
3995;SDS011;2012;49.794;9.722;2022-09-12T02:15:33;23.77;;;13.80;;
3995;SDS011;2012;49.794;9.722;2022-09-12T02:18:05;20.77;;;13.53;;
3995;SDS011;2012;49.794;9.722;2022-09-12T02:20:33;25.53;;;14.10;;
3995;SDS011;2012;49.794;9.722;2022-09-12T02:23:21;30.20;;;12.73;;
3995;SDS011;2012;49.794;9.722;2022-09-12T02:25:51;23.50;;;12.87;;
3995;SDS011;2012;49.794;9.722;2022-09-12T02:28:25;27.03;;;13.03;;
3995;SDS011;2012;49.794;9.722;2022-09-12T02:31:11;25.73;;;13.20;;
3995;SDS011;2012;49.794;9.722;2022-09-12T02:34:09;15.03;;;12.07;;
3995;SDS011;2012;49.794;9.722;2022-09-12T02:36:51;26.90;;;13.20;;
3995;SDS011;2012;49.794;9.722;2022-09-12T02:39:20;66.17;;;12.70;;
3995;SDS011;2012;49.794;9.722;2022-09-12T02:41:50;20.63;;;12.30;;
3995;SDS011;2012;49.794;9.722;2022-09-12T02:44:19;49.50;;;12.30;;
3995;SDS011;2012;49.794;9.722;2022-09-12T02:46:47;21.73;;;12.40;;
3995;SDS011;2012;49.794;9.722;2022-09-12T02:49:20;33.13;;;11.37;;
3995;SDS011;2012;49.794;9.722;2022-09-12T02:51:48;24.43;;;10.83;;
3995;SDS011;2012;49.794;9.722;2022-09-12T02:54:15;15.33;;;10.90;;
3995;SDS011;2012;49.794;9.722;2022-09-12T02:56:44;11.70;;;9.97;;
3995;SDS011;2012;49.794;9.722;2022-09-12T02:59:13;9.60;;;8.27;;
3995;SDS011;2012;49.794;9.722;2022-09-12T03:01:54;10.70;;;8.20;;
3995;SDS011;2012;49.794;9.722;2022-09-12T03:04:52;13.23;;;8.60;;
3995;SDS011;2012;49.794;9.722;2022-09-12T03:07:38;10.97;;;9.30;;
3995;SDS011;2012;49.794;9.722;2022-09-12T03:10:27;9.73;;;8.73;;
3995;SDS011;2012;49.794;9.722;2022-09-12T03:16:02;9.80;;;8.30;;
3995;SDS011;2012;49.794;9.722;2022-09-12T03:24:11;12.00;;;9.20;;
3995;SDS011;2012;49.794;9.722;2022-09-12T03:26:51;9.53;;;8.53;;
3995;SDS011;2012;49.794;9.722;2022-09-12T03:29:24;10.87;;;8.80;;
3995;SDS011;2012;49.794;9.722;2022-09-12T03:31:53;11.10;;;9.27;;
3995;SDS011;2012;49.794;9.722;2022-09-12T03:34:22;24.10;;;9.30;;
3995;SDS011;2012;49.794;9.722;2022-09-12T03:36:50;9.53;;;8.60;;
3995;SDS011;2012;49.794;9.722;2022-09-12T03:39:17;28.87;;;9.67;;
3995;SDS011;2012;49.794;9.722;2022-09-12T03:41:43;8.83;;;7.87;;
3995;SDS011;2012;49.794;9.722;2022-09-12T03:44:10;9.50;;;8.30;;
3995;SDS011;2012;49.794;9.722;2022-09-12T03:46:37;15.60;;;8.57;;
3995;SDS011;2012;49.794;9.722;2022-09-12T03:49:03;12.30;;;9.57;;
3995;SDS011;2012;49.794;9.722;2022-09-12T03:51:31;52.93;;;9.67;;
3995;SDS011;2012;49.794;9.722;2022-09-12T03:53:57;11.53;;;9.83;;
3995;SDS011;2012;49.794;9.722;2022-09-12T03:56:24;29.93;;;9.97;;
3995;SDS011;2012;49.794;9.722;2022-09-12T03:58:51;9.53;;;8.63;;
3995;SDS011;2012;49.794;9.722;2022-09-12T04:01:18;10.03;;;8.83;;
3995;SDS011;2012;49.794;9.722;2022-09-12T04:03:46;12.73;;;9.70;;
3995;SDS011;2012;49.794;9.722;2022-09-12T04:06:15;10.33;;;8.37;;
3995;SDS011;2012;49.794;9.722;2022-09-12T04:08:48;12.97;;;9.20;;
3995;SDS011;2012;49.794;9.722;2022-09-12T04:11:16;12.53;;;8.80;;
3995;SDS011;2012;49.794;9.722;2022-09-12T04:13:44;9.30;;;8.10;;
3995;SDS011;2012;49.794;9.722;2022-09-12T04:16:13;9.40;;;7.60;;
3995;SDS011;2012;49.794;9.722;2022-09-12T04:18:41;9.23;;;8.03;;
3995;SDS011;2012;49.794;9.722;2022-09-12T04:21:11;9.47;;;8.47;;
3995;SDS011;2012;49.794;9.722;2022-09-12T04:23:40;12.83;;;8.60;;
3995;SDS011;2012;49.794;9.722;2022-09-12T04:26:07;13.23;;;8.00;;
3995;SDS011;2012;49.794;9.722;2022-09-12T04:28:35;9.03;;;8.17;;
3995;SDS011;2012;49.794;9.722;2022-09-12T04:31:03;25.57;;;9.37;;
3995;SDS011;2012;49.794;9.722;2022-09-12T04:33:33;10.80;;;9.13;;
3995;SDS011;2012;49.794;9.722;2022-09-12T04:36:03;21.63;;;9.23;;
3995;SDS011;2012;49.794;9.722;2022-09-12T04:38:32;13.60;;;9.50;;
3995;SDS011;2012;49.794;9.722;2022-09-12T04:41:00;10.17;;;9.17;;
3995;SDS011;2012;49.794;9.722;2022-09-12T04:43:35;10.20;;;9.10;;
3995;SDS011;2012;49.794;9.722;2022-09-12T04:46:05;9.93;;;8.93;;
3995;SDS011;2012;49.794;9.722;2022-09-12T04:48:33;8.80;;;7.90;;
3995;SDS011;2012;49.794;9.722;2022-09-12T04:51:10;9.70;;;7.20;;
3995;SDS011;2012;49.794;9.722;2022-09-12T04:53:39;14.60;;;8.73;;
3995;SDS011;2012;49.794;9.722;2022-09-12T04:56:08;8.97;;;8.03;;
3995;SDS011;2012;49.794;9.722;2022-09-12T04:58:36;11.77;;;6.93;;
3995;SDS011;2012;49.794;9.722;2022-09-12T05:01:13;8.00;;;7.10;;
3995;SDS011;2012;49.794;9.722;2022-09-12T05:03:42;13.10;;;7.40;;
3995;SDS011;2012;49.794;9.722;2022-09-12T05:06:10;13.83;;;7.63;;
3995;SDS011;2012;49.794;9.722;2022-09-12T05:08:40;12.20;;;7.10;;
3995;SDS011;2012;49.794;9.722;2022-09-12T05:11:09;11.13;;;7.40;;
3995;SDS011;2012;49.794;9.722;2022-09-12T05:13:38;8.27;;;6.70;;
3995;SDS011;2012;49.794;9.722;2022-09-12T05:16:05;41.20;;;6.87;;
3995;SDS011;2012;49.794;9.722;2022-09-12T05:18:33;8.33;;;6.00;;
3995;SDS011;2012;49.794;9.722;2022-09-12T05:21:04;16.30;;;6.50;;
3995;SDS011;2012;49.794;9.722;2022-09-12T05:23:32;10.90;;;6.80;;
3995;SDS011;2012;49.794;9.722;2022-09-12T05:25:59;8.13;;;6.47;;
3995;SDS011;2012;49.794;9.722;2022-09-12T05:28:30;7.80;;;7.07;;
3995;SDS011;2012;49.794;9.722;2022-09-12T05:31:01;21.07;;;7.20;;
3995;SDS011;2012;49.794;9.722;2022-09-12T05:33:29;7.23;;;6.50;;
3995;SDS011;2012;49.794;9.722;2022-09-12T05:35:57;21.80;;;7.70;;
3995;SDS011;2012;49.794;9.722;2022-09-12T05:38:24;13.50;;;6.40;;
3995;SDS011;2012;49.794;9.722;2022-09-12T05:40:51;7.50;;;6.70;;
3995;SDS011;2012;49.794;9.722;2022-09-12T05:43:17;12.27;;;7.63;;
3995;SDS011;2012;49.794;9.722;2022-09-12T05:45:45;12.07;;;7.10;;
3995;SDS011;2012;49.794;9.722;2022-09-12T05:48:12;7.70;;;6.83;;
3995;SDS011;2012;49.794;9.722;2022-09-12T05:50:38;7.53;;;6.73;;
3995;SDS011;2012;49.794;9.722;2022-09-12T05:53:07;12.20;;;7.67;;
3995;SDS011;2012;49.794;9.722;2022-09-12T05:55:34;12.63;;;6.13;;
3995;SDS011;2012;49.794;9.722;2022-09-12T05:58:01;13.67;;;6.50;;
3995;SDS011;2012;49.794;9.722;2022-09-12T06:00:28;6.10;;;5.50;;
3995;SDS011;2012;49.794;9.722;2022-09-12T06:02:58;8.23;;;5.50;;
3995;SDS011;2012;49.794;9.722;2022-09-12T06:05:26;5.80;;;5.03;;
3995;SDS011;2012;49.794;9.722;2022-09-12T06:07:53;6.93;;;5.43;;
3995;SDS011;2012;49.794;9.722;2022-09-12T06:10:20;7.80;;;6.80;;
3995;SDS011;2012;49.794;9.722;2022-09-12T06:12:48;7.70;;;6.90;;
3995;SDS011;2012;49.794;9.722;2022-09-12T06:15:14;7.17;;;6.23;;
3995;SDS011;2012;49.794;9.722;2022-09-12T06:17:41;14.70;;;6.70;;
3995;SDS011;2012;49.794;9.722;2022-09-12T06:20:08;8.50;;;5.87;;
3995;SDS011;2012;49.794;9.722;2022-09-12T06:22:35;10.33;;;6.90;;
3995;SDS011;2012;49.794;9.722;2022-09-12T06:25:01;9.60;;;6.90;;
3995;SDS011;2012;49.794;9.722;2022-09-12T06:27:28;8.60;;;6.87;;
3995;SDS011;2012;49.794;9.722;2022-09-12T06:29:55;10.13;;;7.30;;
3995;SDS011;2012;49.794;9.722;2022-09-12T06:32:21;34.73;;;9.50;;
3995;SDS011;2012;49.794;9.722;2022-09-12T06:34:48;235.00;;;26.67;;
3995;SDS011;2012;49.794;9.722;2022-09-12T06:37:15;318.47;;;35.53;;
3995;SDS011;2012;49.794;9.722;2022-09-12T06:39:42;84.60;;;15.57;;
3995;SDS011;2012;49.794;9.722;2022-09-12T06:42:09;135.73;;;20.67;;
3995;SDS011;2012;49.794;9.722;2022-09-12T06:44:37;22.73;;;8.03;;
3995;SDS011;2012;49.794;9.722;2022-09-12T06:47:04;25.23;;;9.43;;
3995;SDS011;2012;49.794;9.722;2022-09-12T06:49:31;40.20;;;10.50;;
3995;SDS011;2012;49.794;9.722;2022-09-12T06:51:59;219.90;;;24.07;;
3995;SDS011;2012;49.794;9.722;2022-09-12T06:54:26;32.27;;;8.10;;
3995;SDS011;2012;49.794;9.722;2022-09-12T06:56:53;21.13;;;8.20;;
3995;SDS011;2012;49.794;9.722;2022-09-12T06:59:19;117.33;;;17.33;;
3995;SDS011;2012;49.794;9.722;2022-09-12T07:01:46;41.60;;;10.57;;
3995;SDS011;2012;49.794;9.722;2022-09-12T07:04:13;46.97;;;8.40;;
3995;SDS011;2012;49.794;9.722;2022-09-12T07:06:40;61.57;;;10.83;;
3995;SDS011;2012;49.794;9.722;2022-09-12T07:09:09;24.60;;;8.20;;
3995;SDS011;2012;49.794;9.722;2022-09-12T07:11:43;32.23;;;8.30;;
3995;SDS011;2012;49.794;9.722;2022-09-12T07:14:11;26.20;;;7.20;;
3995;SDS011;2012;49.794;9.722;2022-09-12T07:16:39;18.07;;;8.27;;
3995;SDS011;2012;49.794;9.722;2022-09-12T07:19:06;8.17;;;7.00;;
3995;SDS011;2012;49.794;9.722;2022-09-12T07:21:33;8.63;;;6.13;;
3995;SDS011;2012;49.794;9.722;2022-09-12T07:24:06;12.23;;;7.40;;
3995;SDS011;2012;49.794;9.722;2022-09-12T07:26:34;11.33;;;7.40;;
3995;SDS011;2012;49.794;9.722;2022-09-12T07:29:01;17.33;;;7.60;;
3995;SDS011;2012;49.794;9.722;2022-09-12T07:31:48;13.97;;;8.53;;
3995;SDS011;2012;49.794;9.722;2022-09-12T07:34:14;11.57;;;8.47;;
3995;SDS011;2012;49.794;9.722;2022-09-12T07:36:42;9.07;;;8.07;;
3995;SDS011;2012;49.794;9.722;2022-09-12T07:39:09;12.80;;;8.10;;
3995;SDS011;2012;49.794;9.722;2022-09-12T07:41:36;11.63;;;9.37;;
3995;SDS011;2012;49.794;9.722;2022-09-12T07:44:03;12.70;;;8.33;;
3995;SDS011;2012;49.794;9.722;2022-09-12T07:46:31;11.73;;;8.03;;
3995;SDS011;2012;49.794;9.722;2022-09-12T07:48:59;15.93;;;8.10;;
3995;SDS011;2012;49.794;9.722;2022-09-12T07:51:27;12.10;;;8.47;;
3995;SDS011;2012;49.794;9.722;2022-09-12T07:53:54;21.73;;;9.23;;
3995;SDS011;2012;49.794;9.722;2022-09-12T07:56:22;15.47;;;9.93;;
3995;SDS011;2012;49.794;9.722;2022-09-12T07:58:56;19.43;;;10.10;;
3995;SDS011;2012;49.794;9.722;2022-09-12T08:01:23;52.23;;;12.10;;
3995;SDS011;2012;49.794;9.722;2022-09-12T08:03:52;13.40;;;9.53;;
3995;SDS011;2012;49.794;9.722;2022-09-12T08:06:25;10.93;;;9.47;;
3995;SDS011;2012;49.794;9.722;2022-09-12T08:08:53;13.17;;;9.63;;
3995;SDS011;2012;49.794;9.722;2022-09-12T08:11:22;14.80;;;10.60;;
3995;SDS011;2012;49.794;9.722;2022-09-12T08:13:50;14.13;;;9.90;;
3995;SDS011;2012;49.794;9.722;2022-09-12T08:16:22;35.90;;;13.37;;
3995;SDS011;2012;49.794;9.722;2022-09-12T08:18:51;21.23;;;12.63;;
3995;SDS011;2012;49.794;9.722;2022-09-12T08:21:18;15.87;;;10.13;;
3995;SDS011;2012;49.794;9.722;2022-09-12T08:23:50;23.73;;;11.50;;
3995;SDS011;2012;49.794;9.722;2022-09-12T08:26:19;16.87;;;11.40;;
3995;SDS011;2012;49.794;9.722;2022-09-12T08:28:45;15.07;;;10.50;;
3995;SDS011;2012;49.794;9.722;2022-09-12T08:31:13;13.30;;;11.00;;
3995;SDS011;2012;49.794;9.722;2022-09-12T08:33:42;14.53;;;10.73;;
3995;SDS011;2012;49.794;9.722;2022-09-12T08:36:10;31.07;;;12.60;;
3995;SDS011;2012;49.794;9.722;2022-09-12T08:38:38;84.77;;;16.27;;
3995;SDS011;2012;49.794;9.722;2022-09-12T08:41:19;22.07;;;12.77;;
3995;SDS011;2012;49.794;9.722;2022-09-12T08:49:53;21.70;;;9.53;;
3995;SDS011;2012;49.794;9.722;2022-09-12T08:52:30;165.53;;;22.93;;
3995;SDS011;2012;49.794;9.722;2022-09-12T08:57:59;16.70;;;13.33;;
3995;SDS011;2012;49.794;9.722;2022-09-12T09:06:13;24.10;;;12.57;;
3995;SDS011;2012;49.794;9.722;2022-09-12T09:15:16;84.17;;;18.13;;
3995;SDS011;2012;49.794;9.722;2022-09-12T09:17:57;31.00;;;12.30;;
3995;SDS011;2012;49.794;9.722;2022-09-12T09:23:06;26.37;;;13.60;;
3995;SDS011;2012;49.794;9.722;2022-09-12T09:45:39;31.10;;;15.70;;
3995;SDS011;2012;49.794;9.722;2022-09-12T09:48:15;33.23;;;15.23;;
3995;SDS011;2012;49.794;9.722;2022-09-12T09:50:48;33.00;;;15.13;;
3995;SDS011;2012;49.794;9.722;2022-09-12T09:53:24;25.00;;;14.67;;
3995;SDS011;2012;49.794;9.722;2022-09-12T09:58:52;19.97;;;15.53;;
3995;SDS011;2012;49.794;9.722;2022-09-12T10:01:18;22.27;;;14.70;;
3995;SDS011;2012;49.794;9.722;2022-09-12T10:03:47;24.00;;;16.53;;
3995;SDS011;2012;49.794;9.722;2022-09-12T10:08:48;28.30;;;15.10;;
3995;SDS011;2012;49.794;9.722;2022-09-12T10:11:18;24.63;;;15.47;;
3995;SDS011;2012;49.794;9.722;2022-09-12T10:16:32;27.23;;;14.20;;
3995;SDS011;2012;49.794;9.722;2022-09-12T10:19:19;26.43;;;14.90;;
3995;SDS011;2012;49.794;9.722;2022-09-12T10:21:50;24.83;;;12.97;;
3995;SDS011;2012;49.794;9.722;2022-09-12T10:24:22;24.23;;;14.60;;
3995;SDS011;2012;49.794;9.722;2022-09-12T10:27:05;22.57;;;14.50;;
3995;SDS011;2012;49.794;9.722;2022-09-12T10:29:40;17.70;;;13.53;;
3995;SDS011;2012;49.794;9.722;2022-09-12T10:32:21;20.03;;;14.43;;
3995;SDS011;2012;49.794;9.722;2022-09-12T10:34:57;26.73;;;14.00;;
3995;SDS011;2012;49.794;9.722;2022-09-12T10:37:34;19.40;;;14.80;;
3995;SDS011;2012;49.794;9.722;2022-09-12T10:40:18;15.40;;;12.00;;
3995;SDS011;2012;49.794;9.722;2022-09-12T10:45:30;21.60;;;12.47;;
3995;SDS011;2012;49.794;9.722;2022-09-12T10:48:20;13.80;;;11.00;;
3995;SDS011;2012;49.794;9.722;2022-09-12T10:51:00;13.73;;;10.87;;
3995;SDS011;2012;49.794;9.722;2022-09-12T10:53:31;18.20;;;11.10;;
3995;SDS011;2012;49.794;9.722;2022-09-12T11:01:48;13.43;;;10.40;;
3995;SDS011;2012;49.794;9.722;2022-09-12T11:23:32;12.50;;;8.10;;
3995;SDS011;2012;49.794;9.722;2022-09-12T11:31:47;9.07;;;6.13;;
3995;SDS011;2012;49.794;9.722;2022-09-12T11:37:13;8.93;;;6.43;;
3995;SDS011;2012;49.794;9.722;2022-09-12T11:40:00;10.60;;;6.60;;
3995;SDS011;2012;49.794;9.722;2022-09-12T11:42:37;8.90;;;6.47;;
3995;SDS011;2012;49.794;9.722;2022-09-12T11:45:11;8.93;;;7.13;;
3995;SDS011;2012;49.794;9.722;2022-09-12T11:47:53;7.43;;;5.80;;
3995;SDS011;2012;49.794;9.722;2022-09-12T11:50:28;6.53;;;5.43;;
3995;SDS011;2012;49.794;9.722;2022-09-12T11:52:58;11.03;;;6.50;;
3995;SDS011;2012;49.794;9.722;2022-09-12T11:55:31;7.73;;;6.77;;
3995;SDS011;2012;49.794;9.722;2022-09-12T11:58:12;9.57;;;5.60;;
3995;SDS011;2012;49.794;9.722;2022-09-12T12:00:41;8.13;;;5.37;;
3995;SDS011;2012;49.794;9.722;2022-09-12T12:03:31;8.20;;;6.30;;
3995;SDS011;2012;49.794;9.722;2022-09-12T12:06:06;6.73;;;5.70;;
3995;SDS011;2012;49.794;9.722;2022-09-12T12:08:39;7.37;;;6.00;;
3995;SDS011;2012;49.794;9.722;2022-09-12T12:11:09;7.07;;;5.60;;
3995;SDS011;2012;49.794;9.722;2022-09-12T12:13:45;8.03;;;5.53;;
3995;SDS011;2012;49.794;9.722;2022-09-12T12:16:24;5.40;;;4.90;;
3995;SDS011;2012;49.794;9.722;2022-09-12T12:18:56;6.17;;;5.67;;
3995;SDS011;2012;49.794;9.722;2022-09-12T12:21:37;10.30;;;5.10;;
3995;SDS011;2012;49.794;9.722;2022-09-12T12:45:46;10.47;;;4.50;;
3995;SDS011;2012;49.794;9.722;2022-09-12T12:47:58;5.20;;;4.70;;
3995;SDS011;2012;49.794;9.722;2022-09-12T12:50:33;5.33;;;4.27;;
3995;SDS011;2012;49.794;9.722;2022-09-12T12:53:03;7.77;;;4.20;;
3995;SDS011;2012;49.794;9.722;2022-09-12T12:55:36;6.33;;;4.20;;
3995;SDS011;2012;49.794;9.722;2022-09-12T13:01:06;5.00;;;4.60;;
3995;SDS011;2012;49.794;9.722;2022-09-12T13:03:35;4.20;;;3.80;;
3995;SDS011;2012;49.794;9.722;2022-09-12T13:06:04;9.07;;;4.20;;
3995;SDS011;2012;49.794;9.722;2022-09-12T13:08:37;5.20;;;4.30;;
3995;SDS011;2012;49.794;9.722;2022-09-12T13:13:58;6.07;;;3.43;;
3995;SDS011;2012;49.794;9.722;2022-09-12T13:16:38;4.90;;;4.30;;
3995;SDS011;2012;49.794;9.722;2022-09-12T13:19:19;5.70;;;3.97;;
3995;SDS011;2012;49.794;9.722;2022-09-12T13:22:02;9.73;;;3.57;;
3995;SDS011;2012;49.794;9.722;2022-09-12T13:24:47;5.67;;;3.83;;
3995;SDS011;2012;49.794;9.722;2022-09-12T13:27:15;6.27;;;4.20;;
3995;SDS011;2012;49.794;9.722;2022-09-12T13:30:07;5.83;;;5.23;;
3995;SDS011;2012;49.794;9.722;2022-09-12T13:32:37;13.83;;;4.50;;
3995;SDS011;2012;49.794;9.722;2022-09-12T13:35:18;4.43;;;3.93;;
3995;SDS011;2012;49.794;9.722;2022-09-12T13:37:55;10.00;;;4.30;;
3995;SDS011;2012;49.794;9.722;2022-09-12T13:43:54;4.20;;;3.80;;
3995;SDS011;2012;49.794;9.722;2022-09-12T13:46:25;5.40;;;4.00;;
3995;SDS011;2012;49.794;9.722;2022-09-12T13:48:56;5.13;;;3.43;;
3995;SDS011;2012;49.794;9.722;2022-09-12T13:51:25;4.97;;;3.40;;
3995;SDS011;2012;49.794;9.722;2022-09-12T13:53:56;4.20;;;3.80;;
3995;SDS011;2012;49.794;9.722;2022-09-12T13:56:25;5.50;;;3.30;;
3995;SDS011;2012;49.794;9.722;2022-09-12T13:58:56;5.00;;;3.43;;
3995;SDS011;2012;49.794;9.722;2022-09-12T14:01:34;10.40;;;3.77;;
3995;SDS011;2012;49.794;9.722;2022-09-12T14:04:24;3.47;;;3.17;;
3995;SDS011;2012;49.794;9.722;2022-09-12T14:07:12;3.30;;;3.00;;
3995;SDS011;2012;49.794;9.722;2022-09-12T14:09:40;5.77;;;3.37;;
3995;SDS011;2012;49.794;9.722;2022-09-12T14:12:13;3.70;;;3.40;;
3995;SDS011;2012;49.794;9.722;2022-09-12T14:14:52;4.93;;;2.87;;
3995;SDS011;2012;49.794;9.722;2022-09-12T14:20:06;8.00;;;2.97;;
3995;SDS011;2012;49.794;9.722;2022-09-12T14:22:37;3.43;;;3.13;;
3995;SDS011;2012;49.794;9.722;2022-09-12T14:25:04;3.70;;;3.23;;
3995;SDS011;2012;49.794;9.722;2022-09-12T14:27:44;3.83;;;3.47;;
3995;SDS011;2012;49.794;9.722;2022-09-12T14:33:05;4.77;;;3.57;;
3995;SDS011;2012;49.794;9.722;2022-09-12T14:35:44;6.73;;;3.73;;
3995;SDS011;2012;49.794;9.722;2022-09-12T14:40:42;3.47;;;3.10;;
3995;SDS011;2012;49.794;9.722;2022-09-12T14:43:17;5.63;;;3.50;;
3995;SDS011;2012;49.794;9.722;2022-09-12T14:48:55;3.60;;;3.27;;
3995;SDS011;2012;49.794;9.722;2022-09-12T14:51:32;3.17;;;2.70;;
3995;SDS011;2012;49.794;9.722;2022-09-12T14:54:03;3.63;;;3.30;;
3995;SDS011;2012;49.794;9.722;2022-09-12T14:57:04;4.60;;;3.67;;
3995;SDS011;2012;49.794;9.722;2022-09-12T15:07:13;5.10;;;3.13;;
3995;SDS011;2012;49.794;9.722;2022-09-12T15:09:40;7.80;;;3.27;;
3995;SDS011;2012;49.794;9.722;2022-09-12T15:12:12;8.23;;;3.47;;
3995;SDS011;2012;49.794;9.722;2022-09-12T15:14:39;4.03;;;3.70;;
3995;SDS011;2012;49.794;9.722;2022-09-12T15:17:05;6.00;;;3.10;;
3995;SDS011;2012;49.794;9.722;2022-09-12T15:19:32;3.97;;;3.53;;
3995;SDS011;2012;49.794;9.722;2022-09-12T15:21:59;3.60;;;2.73;;
3995;SDS011;2012;49.794;9.722;2022-09-12T15:24:25;5.13;;;4.20;;
3995;SDS011;2012;49.794;9.722;2022-09-12T15:26:52;3.80;;;3.50;;
3995;SDS011;2012;49.794;9.722;2022-09-12T15:29:19;4.17;;;3.77;;
3995;SDS011;2012;49.794;9.722;2022-09-12T15:31:46;4.20;;;3.43;;
3995;SDS011;2012;49.794;9.722;2022-09-12T15:34:15;5.40;;;3.50;;
3995;SDS011;2012;49.794;9.722;2022-09-12T15:36:42;4.33;;;3.07;;
3995;SDS011;2012;49.794;9.722;2022-09-12T15:39:08;5.23;;;3.27;;
3995;SDS011;2012;49.794;9.722;2022-09-12T15:41:36;6.23;;;3.60;;
3995;SDS011;2012;49.794;9.722;2022-09-12T15:44:04;3.40;;;3.10;;
3995;SDS011;2012;49.794;9.722;2022-09-12T15:46:33;3.10;;;2.90;;
3995;SDS011;2012;49.794;9.722;2022-09-12T15:49:00;5.87;;;3.03;;
3995;SDS011;2012;49.794;9.722;2022-09-12T15:51:26;5.13;;;3.30;;
3995;SDS011;2012;49.794;9.722;2022-09-12T15:53:53;4.10;;;3.30;;
3995;SDS011;2012;49.794;9.722;2022-09-12T15:56:20;7.27;;;3.43;;
3995;SDS011;2012;49.794;9.722;2022-09-12T15:58:47;5.80;;;3.60;;
3995;SDS011;2012;49.794;9.722;2022-09-12T16:01:30;10.23;;;3.20;;
3995;SDS011;2012;49.794;9.722;2022-09-12T16:03:57;4.47;;;3.37;;
3995;SDS011;2012;49.794;9.722;2022-09-12T16:06:23;3.37;;;3.17;;
3995;SDS011;2012;49.794;9.722;2022-09-12T16:08:50;3.70;;;3.40;;
3995;SDS011;2012;49.794;9.722;2022-09-12T16:11:24;3.57;;;3.27;;
3995;SDS011;2012;49.794;9.722;2022-09-12T16:13:52;7.90;;;2.73;;
3995;SDS011;2012;49.794;9.722;2022-09-12T16:16:19;3.87;;;3.00;;
3995;SDS011;2012;49.794;9.722;2022-09-12T16:18:46;11.37;;;3.70;;
3995;SDS011;2012;49.794;9.722;2022-09-12T16:21:13;5.93;;;3.23;;
3995;SDS011;2012;49.794;9.722;2022-09-12T16:23:41;6.27;;;3.13;;
3995;SDS011;2012;49.794;9.722;2022-09-12T16:26:09;5.00;;;3.50;;
3995;SDS011;2012;49.794;9.722;2022-09-12T16:28:35;7.00;;;3.83;;
3995;SDS011;2012;49.794;9.722;2022-09-12T16:31:03;6.63;;;3.63;;
3995;SDS011;2012;49.794;9.722;2022-09-12T16:33:31;7.57;;;4.17;;
3995;SDS011;2012;49.794;9.722;2022-09-12T16:36:02;6.80;;;3.50;;
3995;SDS011;2012;49.794;9.722;2022-09-12T16:38:30;4.47;;;3.77;;
3995;SDS011;2012;49.794;9.722;2022-09-12T16:41:01;5.20;;;3.90;;
3995;SDS011;2012;49.794;9.722;2022-09-12T16:43:30;4.00;;;3.60;;
3995;SDS011;2012;49.794;9.722;2022-09-12T16:46:05;7.00;;;3.80;;
3995;SDS011;2012;49.794;9.722;2022-09-12T16:48:40;7.90;;;4.27;;
3995;SDS011;2012;49.794;9.722;2022-09-12T16:51:07;6.77;;;4.77;;
3995;SDS011;2012;49.794;9.722;2022-09-12T16:53:35;6.17;;;4.70;;
3995;SDS011;2012;49.794;9.722;2022-09-12T16:56:04;5.30;;;3.77;;
3995;SDS011;2012;49.794;9.722;2022-09-12T16:58:31;4.30;;;3.83;;
3995;SDS011;2012;49.794;9.722;2022-09-12T17:01:05;4.17;;;3.77;;
3995;SDS011;2012;49.794;9.722;2022-09-12T17:03:39;4.70;;;4.23;;
3995;SDS011;2012;49.794;9.722;2022-09-12T17:08:38;4.37;;;3.97;;
3995;SDS011;2012;49.794;9.722;2022-09-12T17:11:13;7.10;;;3.13;;
3995;SDS011;2012;49.794;9.722;2022-09-12T17:13:48;5.13;;;3.30;;
3995;SDS011;2012;49.794;9.722;2022-09-12T17:16:36;10.50;;;4.33;;
3995;SDS011;2012;49.794;9.722;2022-09-12T17:19:05;8.40;;;4.50;;
3995;SDS011;2012;49.794;9.722;2022-09-12T17:21:32;5.87;;;4.47;;
3995;SDS011;2012;49.794;9.722;2022-09-12T17:24:00;13.10;;;5.00;;
3995;SDS011;2012;49.794;9.722;2022-09-12T17:26:27;8.73;;;4.73;;
3995;SDS011;2012;49.794;9.722;2022-09-12T17:28:54;11.03;;;4.70;;
3995;SDS011;2012;49.794;9.722;2022-09-12T17:31:20;10.20;;;4.63;;
3995;SDS011;2012;49.794;9.722;2022-09-12T17:33:47;5.83;;;4.50;;
3995;SDS011;2012;49.794;9.722;2022-09-12T17:36:15;9.57;;;5.80;;
3995;SDS011;2012;49.794;9.722;2022-09-12T17:38:43;8.63;;;4.80;;
3995;SDS011;2012;49.794;9.722;2022-09-12T17:41:14;11.40;;;4.80;;
3995;SDS011;2012;49.794;9.722;2022-09-12T17:43:46;9.00;;;5.23;;
3995;SDS011;2012;49.794;9.722;2022-09-12T17:46:20;9.40;;;5.80;;
3995;SDS011;2012;49.794;9.722;2022-09-12T17:48:51;6.13;;;5.53;;
3995;SDS011;2012;49.794;9.722;2022-09-12T17:51:23;11.57;;;5.77;;
3995;SDS011;2012;49.794;9.722;2022-09-12T17:53:54;6.80;;;6.10;;
3995;SDS011;2012;49.794;9.722;2022-09-12T17:56:29;7.97;;;6.37;;
3995;SDS011;2012;49.794;9.722;2022-09-12T17:58:57;5.97;;;5.47;;
3995;SDS011;2012;49.794;9.722;2022-09-12T18:01:24;9.80;;;6.70;;
3995;SDS011;2012;49.794;9.722;2022-09-12T18:04:10;6.30;;;5.70;;
3995;SDS011;2012;49.794;9.722;2022-09-12T18:06:37;7.60;;;5.97;;
3995;SDS011;2012;49.794;9.722;2022-09-12T18:09:06;6.53;;;5.93;;
3995;SDS011;2012;49.794;9.722;2022-09-12T18:11:34;6.83;;;6.10;;
3995;SDS011;2012;49.794;9.722;2022-09-12T18:14:01;11.00;;;6.17;;
3995;SDS011;2012;49.794;9.722;2022-09-12T18:16:28;7.80;;;5.37;;
3995;SDS011;2012;49.794;9.722;2022-09-12T18:18:59;9.73;;;6.50;;
3995;SDS011;2012;49.794;9.722;2022-09-12T18:21:27;8.10;;;6.40;;
3995;SDS011;2012;49.794;9.722;2022-09-12T18:23:55;8.80;;;6.20;;